• Join FlightAware (Why Join?)
  • Login
  • US Flag 
10:31AM EDT


 

Airport Tracker/Info


-or-


 

Live Flight TrackerFlight Track Log ✈ SWA1231 ✈ 12-Apr-2013 ✈ KSTL - KPHX

Flight Track Log - Related Links

Times and Time Zones

All times are in EDT time to prevent confusion due to time zone crossing. See the SWA1231 flight status page for this flight to view local times or setup timezone preferences in your user account.

Time Position Orientation Groundspeed Altitude Reporting Facility
EDT Latitude Longitude Course Direction KTS MPH feet Rate Location/Type
06:04PM 38.7550 -90.3342 305° West 141 162 2,000  Level FAA TRACON SMA TRACON (SMA)
06:04PM 38.7639 -90.3533 301° West 158 182 2,600 1,800 Climbing FAA TRACON SMA TRACON (SMA)
06:04PM 38.7719 -90.3706 301° West 177 204 3,200 2,520 Climbing FAA TRACON SMA TRACON (SMA)
06:05PM 38.7767 -90.3958 283° West 194 223 4,300 2,400 Climbing FAA TRACON SMA TRACON (SMA)
06:05PM 38.7722 -90.4169 255° West 201 231 4,800 1,260 Climbing FAA TRACON SMA TRACON (SMA)
06:05PM 38.7603 -90.4372 233° Southwest 224 258 5,200 1,560 Climbing FAA TRACON SMA TRACON (SMA)
06:06PM 38.7444 -90.4642 233° Southwest 246 283 5,900 1,200 Climbing FAA TRACON SMA TRACON (SMA)
06:06PM 38.7275 -90.4833 221° Southwest 260 299 6,000 120 Climbing FAA TRACON SMA TRACON (SMA)
06:06PM 38.7103 -90.5008 218° Southwest 263 303 6,000  Level FAA TRACON SMA TRACON (SMA)
06:07PM 38.6883 -90.5228 218° Southwest 260 299 6,000 420 Level FAA TRACON SMA TRACON (SMA)
06:07PM 38.6706 -90.5403 218° Southwest 260 299 6,300 2,100 Climbing FAA TRACON SMA TRACON (SMA)
06:07PM 38.6528 -90.5578 218° Southwest 263 303 7,400 3,900 Climbing FAA TRACON SMA TRACON (SMA)
06:08PM 38.6328 -90.5814 223° Southwest 256 295 8,900 3,720 Climbing FAA TRACON SMA TRACON (SMA)
06:08PM 38.6203 -90.6036 234° Southwest 252 290 9,900 2,760 Climbing FAA TRACON SMA TRACON (SMA)
06:08PM 38.6106 -90.6283 243° Southwest 253 291 10,800 2,220 Climbing FAA TRACON SMA TRACON (SMA)
06:09PM 38.5213 -90.7150 252° West  Level FlightAware Approximate
06:09PM 38.5972 -90.6617 243° Southwest 270 311 11,400  Level FAA TRACON SMA TRACON (SMA)
06:09PM 38.5856 -90.6917 244° Southwest 296 341 11,900 1,920 Climbing FAA TRACON SMA TRACON (SMA)
06:09PM 38.5728 -90.7228 242° Southwest 318 366 12,700 2,820 Climbing FAA TRACON SMA TRACON (SMA)
06:10PM 38.5561 -90.7628 242° Southwest 331 381 13,800 3,420 Climbing FAA TRACON SMA TRACON (SMA)
06:10PM 38.5433 -90.7953 243° Southwest 333 383 15,000 3,180 Climbing FAA TRACON SMA TRACON (SMA)
06:10PM 38.5303 -90.8281 243° Southwest 336 387 16,000 3,060 Climbing FAA TRACON SMA TRACON (SMA)
06:11PM 38.5136 -90.8692 243° Southwest 339 390 17,100 2,820 Climbing FAA TRACON SMA TRACON (SMA)
06:11PM 38.5006 -90.9033 244° Southwest 345 397 17,900 2,280 Climbing FAA TRACON SMA TRACON (SMA)
06:11PM 38.4867 -90.9375 243° Southwest 351 404 18,600 2,460 Climbing FAA TRACON SMA TRACON (SMA)
06:12PM 38.4697 -90.9814 244° Southwest 359 413 19,500 2,520 Climbing FAA TRACON SMA TRACON (SMA)
06:12PM 38.4547 -91.0167 242° Southwest 364 419 20,300 2,520 Climbing FAA TRACON SMA TRACON (SMA)
06:12PM 38.4403 -91.0528 243° Southwest 369 425 21,200 2,640 Climbing FAA TRACON SMA TRACON (SMA)
06:13PM 38.4206 -91.0961 240° Southwest 371 427 22,200 2,760 Climbing FAA TRACON SMA TRACON (SMA)
06:13PM 38.4003 -91.1400 239° Southwest 373 429 23,200 2,340 Climbing FAA TRACON SMA TRACON (SMA)
06:13PM 38.3878 -91.1664 239° Southwest 375 432 23,700 2,040 Climbing FAA TRACON SMA TRACON (SMA)
06:14PM 38.3672 -91.2103 239° Southwest 376 433 24,500 2,100 Climbing FAA TRACON SMA TRACON (SMA)
06:14PM 38.3506 -91.2461 239° Southwest 380 437 25,100 1,800 Climbing FAA TRACON SMA TRACON (SMA)
06:14PM 38.3333 -91.2819 239° Southwest 385 443 25,700 1,800 Climbing FAA TRACON SMA TRACON (SMA)
06:15PM 38.3117 -91.3275 239° Southwest 390 449 26,300 1,620 Climbing FAA TRACON SMA TRACON (SMA)
06:15PM 38.2942 -91.3639 239° Southwest 394 453 26,800 1,500 Climbing FAA TRACON SMA TRACON (SMA)
06:15PM 38.2758 -91.4014 238° Southwest 400 460 27,300 1,620 Climbing FAA TRACON SMA TRACON (SMA)
06:16PM 38.2547 -91.4492 241° Southwest 404 465 27,900 1,320 Climbing FAA TRACON SMA TRACON (SMA)
06:16PM 38.2364 -91.5372 255° West 400 460 28,400 1,680 Climbing Kansas City Center
06:17PM 38.1767 -91.6597 238° Southwest 404 465 30,500 1,920 Climbing Kansas City Center
06:18PM 38.1469 -91.7911 254° West 395 455 32,500 1,860 Climbing Kansas City Center
06:19PM 38.1281 -91.9542 262° West 386 444 34,400 1,560 Climbing Kansas City Center
06:20PM 38.1156 -92.0706 262° West 386 444 35,700 1,200 Climbing Kansas City Center
06:21PM 38.1011 -92.2019 262° West 381 438 37,000 1,080 Climbing Kansas City Center
06:22PM 38.0847 -92.3594 263° West 378 435 38,000 480 Climbing Kansas City Center
06:23PM 38.0719 -92.4917 263° West 379 436 38,000  Level Kansas City Center
06:25PM 38.0481 -92.6487 261° West  Level FlightAware Approximate
06:25PM 38.0403 -92.7642 261° West 375 432 38,000  Level Kansas City Center
06:26PM 38.0253 -92.8956 262° West 375 432 38,000  Level Kansas City Center
06:27PM 38.0100 -93.0256 262° West 374 430 38,000  Level Kansas City Center
06:29PM 37.9956 -93.1553 262° West 371 427 38,000  Level Kansas City Center
06:30PM 37.9808 -93.2861 262° West 373 429 38,000  Level Kansas City Center
06:31PM 37.9622 -93.4431 261° West 375 432 38,000  Level Kansas City Center
06:32PM 37.9461 -93.5753 261° West 377 434 38,000  Level Kansas City Center
06:33PM 37.9306 -93.7069 262° West 378 435 38,000  Level Kansas City Center
06:34PM 37.9131 -93.8408 261° West 382 440 38,000  Level Kansas City Center
06:35PM 37.8969 -93.9719 261° West 379 436 38,000  Level Kansas City Center
06:36PM 37.8822 -94.1028 262° West 376 433 38,000  Level Kansas City Center
06:37PM 37.8661 -94.2333 261° West 375 432 38,000  Level Kansas City Center
06:38PM 37.8456 -94.3897 261° West 375 432 38,000  Level Kansas City Center
06:39PM 37.8306 -94.5044 261° West 374 430 38,000  Level Kansas City Center
06:40PM 37.8117 -94.6500 261° West 375 432 38,000  Level Kansas City Center
06:41PM 37.7961 -94.7739 261° West 374 430 38,000  Level Kansas City Center
06:42PM 37.7761 -94.9192 260° West 374 430 38,000  Level Kansas City Center
06:43PM 37.7603 -95.0439 261° West 374 430 38,000  Level Kansas City Center
06:44PM 37.7428 -95.1739 260° West 375 432 38,000  Level Kansas City Center
06:45PM 37.7225 -95.3286 261° West 375 432 38,000  Level Kansas City Center
06:46PM 37.7050 -95.4564 260° West 372 428 38,000  Level Kansas City Center
06:47PM 37.6867 -95.5875 260° West 376 433 38,000  Level Kansas City Center
06:48PM 37.6678 -95.7172 260° West 376 433 38,000  Level Kansas City Center
06:49PM 37.6497 -95.8475 260° West 377 434 38,000  Level Kansas City Center
06:50PM 37.6317 -95.9769 260° West 376 433 38,000  Level Kansas City Center
06:51PM 37.6128 -96.1050 259° West 374 430 38,000  Level Kansas City Center
06:52PM 37.5914 -96.2597 260° West 373 429 38,000  Level Kansas City Center
06:53PM 37.5719 -96.3889 259° West 373 429 38,000  Level Kansas City Center
06:54PM 37.5542 -96.5114 260° West 376 433 38,000  Level Kansas City Center
06:55PM 37.5344 -96.6411 259° West 376 433 38,000  Level Kansas City Center
06:56PM 37.5161 -96.7711 260° West 377 434 38,000  Level Kansas City Center
06:57PM 37.4939 -96.9281 260° West 380 437 38,000  Level Kansas City Center
06:58PM 37.4742 -97.0583 259° West 379 436 38,000  Level Kansas City Center
07:00PM 37.4544 -97.1903 259° West 382 440 38,000  Level Kansas City Center
07:01PM 37.4350 -97.3203 259° West 379 436 38,000  Level Kansas City Center
07:02PM 37.4142 -97.4508 259° West 380 437 38,000  Level Kansas City Center
07:03PM 37.3944 -97.5797 259° West 375 432 38,000  Level Kansas City Center
07:04PM 37.3736 -97.7100 259° West 378 435 38,000  Level Kansas City Center
07:05PM 37.3536 -97.8403 259° West 377 434 38,000  Level Kansas City Center
07:06PM 37.3286 -97.9953 259° West 377 434 38,000  Level Kansas City Center
07:07PM 37.3072 -98.1253 258° West 377 434 38,000  Level Kansas City Center
07:08PM 37.2864 -98.2564 259° West 379 436 38,000  Level Kansas City Center
07:09PM 37.2656 -98.3878 259° West 381 438 38,000  Level Kansas City Center
07:10PM 37.2436 -98.5203 258° West 383 441 38,000  Level Kansas City Center
07:11PM 37.2214 -98.6511 258° West 384 442 38,000  Level Kansas City Center
07:12PM 37.2011 -98.7794 259° West 381 438 38,000  Level Kansas City Center
07:13PM 37.1750 -98.9336 258° West 378 435 38,000  Level Kansas City Center
07:14PM 37.1539 -99.0614 258° West 376 433 38,000  Level Kansas City Center
07:15PM 37.1308 -99.1844 257° West 373 429 38,000  Level Kansas City Center
07:16PM 37.1081 -99.3158 258° West 374 430 38,000  Level Kansas City Center
07:17PM 37.0839 -99.4628 258° West 380 437 38,000  Level Kansas City Center
07:18PM 37.0625 -99.5850 258° West 377 434 38,000  Level Kansas City Center
07:19PM 37.0369 -99.7306 258° West 382 440 38,000  Level Kansas City Center
07:20PM 37.0142 -99.8586 257° West 381 438 38,000  Level Kansas City Center
07:21PM 36.9914 -99.9869 258° West 379 436 38,000  Level Kansas City Center
07:22PM 36.9686 -100.1206 258° West 377 434 38,000  Level Kansas City Center
07:23PM 36.9464 -100.2436 257° West 378 435 38,000  Level Kansas City Center
07:24PM 36.9211 -100.3864 258° West 377 434 38,000  Level Kansas City Center
07:25PM 36.8986 -100.5064 257° West 374 430 38,000  Level Kansas City Center
07:26PM 36.8731 -100.6481 257° West 373 429 38,000  Level Kansas City Center
07:27PM 36.8508 -100.7703 257° West 374 430 38,000  Level Kansas City Center
07:28PM 36.8228 -100.9150 256° West 381 438 38,000  Level Kansas City Center
07:29PM 36.8003 -101.0381 257° West 381 438 38,000  Level Kansas City Center
07:30PM 36.7767 -101.1628 257° West 383 441 38,000  Level Kansas City Center
07:31PM 36.7486 -101.3067 256° West 383 441 38,000  Level Kansas City Center
07:33PM 36.7253 -101.4297 257° West 381 438 38,000  Level Kansas City Center
07:33PM 36.7147 -101.4914 258° West 380 437 38,000  Level Albuquerque Center
07:34PM 36.6919 -101.6114 257° West 375 432 38,000  Level Albuquerque Center
07:35PM 36.6639 -101.7519 256° West 374 430 38,000  Level Albuquerque Center
07:36PM 36.6406 -101.8717 256° West 374 430 38,000  Level Albuquerque Center
07:37PM 36.6131 -102.0139 256° West 377 434 38,000  Level Albuquerque Center
07:38PM 36.5906 -102.1281 256° West 378 435 38,000  Level Albuquerque Center
07:39PM 36.5656 -102.2547 256° West 378 435 38,000  Level Albuquerque Center
07:40PM 36.5353 -102.4083 256° West 381 438 38,000  Level Albuquerque Center
07:41PM 36.5094 -102.5347 256° West 380 437 38,000  Level Albuquerque Center
07:42PM 36.4833 -102.6619 256° West 382 440 38,000  Level Albuquerque Center
07:43PM 36.4578 -102.7897 256° West 383 441 38,000  Level Albuquerque Center
07:44PM 36.4317 -102.9233 256° West 384 442 38,000  Level Albuquerque Center
07:45PM 36.4033 -103.0539 255° West 388 447 38,000  Level Albuquerque Center
07:46PM 36.3775 -103.1822 256° West 383 441 38,000  Level Albuquerque Center
07:47PM 36.3517 -103.3122 256° West 385 443 38,000  Level Albuquerque Center
07:48PM 36.3247 -103.4389 255° West 380 437 38,000  Level Albuquerque Center
07:49PM 36.2936 -103.5872 255° West 379 436 38,000  Level Albuquerque Center
07:50PM 36.2658 -103.7133 255° West 378 435 38,000  Level Albuquerque Center
07:51PM 36.2394 -103.8383 255° West 374 430 38,000  Level Albuquerque Center
07:52PM 36.2131 -103.9622 255° West 372 428 38,000  Level Albuquerque Center
07:53PM 36.1858 -104.0867 255° West 372 428 38,000  Level Albuquerque Center
07:55PM 36.1589 -104.2111 255° West 372 428 38,000  Level Albuquerque Center
07:56PM 36.1303 -104.3381 254° West 379 436 38,000  Level Albuquerque Center
07:57PM 36.1014 -104.4669 255° West 384 442 38,000  Level Albuquerque Center
07:58PM 36.0700 -104.6128 255° West 377 434 38,000  Level Albuquerque Center
07:59PM 36.0419 -104.7389 255° West 377 434 38,000  Level Albuquerque Center
08:00PM 36.0147 -104.8653 255° West 378 435 38,000  Level Albuquerque Center
08:01PM 35.9825 -104.9961 253° West 391 450 38,000  Level Albuquerque Center
08:02PM 35.9553 -105.1219 255° West 383 441 38,000  Level Albuquerque Center
08:03PM 35.9267 -105.2489 254° West 382 440 38,000  Level Albuquerque Center
08:04PM 35.8972 -105.3750 254° West 381 438 38,000  Level Albuquerque Center
08:05PM 35.8678 -105.5011 254° West 381 438 38,000  Level Albuquerque Center
08:06PM 35.8400 -105.6269 255° West 382 440 38,000  Level Albuquerque Center
08:07PM 35.8111 -105.7522 254° West 382 440 38,000  Level Albuquerque Center
08:08PM 35.7756 -105.9031 254° West 383 441 38,000  Level Albuquerque Center
08:09PM 35.7464 -106.0303 254° West 385 443 38,000  Level Albuquerque Center
08:10PM 35.7161 -106.1569 254° West 386 444 38,000  Level Albuquerque Center
08:11PM 35.6856 -106.2942 255° West 391 450 38,000  Level Albuquerque Center
08:12PM 35.6556 -106.4175 253° West 394 453 38,000  Level Albuquerque Center
08:13PM 35.6253 -106.5431 254° West 394 453 38,000  Level Albuquerque Center
08:14PM 35.5889 -106.6972 254° West 395 455 38,000  Level Albuquerque Center
08:15PM 35.5581 -106.8267 254° West 399 459 38,000  Level Albuquerque Center
08:16PM 35.5267 -106.9547 253° West 397 457 38,000  Level Albuquerque Center
08:17PM 35.4950 -107.0842 253° West 399 459 38,000  Level Albuquerque Center
08:18PM 35.4597 -107.2247 253° West 399 459 38,000  Level Albuquerque Center
08:19PM 35.4242 -107.3719 254° West 402 463 38,000  Level Albuquerque Center
08:20PM 35.3917 -107.4975 252° West 403 464 38,000  Level Albuquerque Center
08:21PM 35.3608 -107.6219 253° West 400 460 38,000  Level Albuquerque Center
08:22PM 35.3244 -107.7675 253° West 400 460 38,000 -360 Level Albuquerque Center
08:23PM 35.2922 -107.8947 253° West 404 465 37,300 -840 Descending Albuquerque Center
08:24PM 35.2558 -108.0408 253° West 403 464 36,400 -660 Descending Albuquerque Center
08:25PM 35.2231 -108.1686 253° West 406 467 36,000 -240 Descending Albuquerque Center
08:26PM 35.1864 -108.3125 253° West 400 460 36,000  Level Albuquerque Center
08:27PM 35.1547 -108.4369 253° West 400 460 36,000  Level Albuquerque Center
08:28PM 35.1206 -108.5592 251° West 397 457 36,000  Level Albuquerque Center
08:30PM 35.0764 -108.6997 249° West 397 457 36,000  Level Albuquerque Center
08:31PM 35.0386 -108.8208 249° West 398 458 36,000  Level Albuquerque Center
08:32PM 34.9950 -108.9622 249° West 398 458 36,000  Level Albuquerque Center
08:33PM 34.9561 -109.0828 249° West 397 457 36,000  Level Albuquerque Center
08:34PM 34.9194 -109.2044 250° West 399 459 36,000 -780 Level Albuquerque Center
08:35PM 34.8744 -109.3447 249° West 398 458 34,500 -1,320 Descending Albuquerque Center
08:36PM 34.8353 -109.4650 248° West 398 458 33,300 -1,140 Descending Albuquerque Center
08:37PM 34.7897 -109.6036 248° West 396 456 32,200 -660 Descending Albuquerque Center
08:38PM 34.7497 -109.7231 248° West 398 458 32,000 -120 Descending Albuquerque Center
08:39PM 34.6983 -109.8350 241° Southwest 400 460 32,000  Level Albuquerque Center
08:40PM 34.6403 -109.9664 242° Southwest 396 456 32,000  Level Albuquerque Center
08:41PM 34.5892 -110.0806 241° Southwest 399 459 32,000  Level Albuquerque Center
08:42PM 34.5292 -110.2119 241° Southwest 398 458 32,000 -120 Level Albuquerque Center
08:43PM 34.4783 -110.3278 242° Southwest 401 461 31,800 -1,080 Descending Albuquerque Center
08:44PM 34.4275 -110.4442 242° Southwest 406 467 29,900 -1,980 Descending Albuquerque Center
08:45PM 34.3772 -110.5611 243° Southwest 396 456 27,800 -2,040 Descending Albuquerque Center
08:46PM 34.3242 -110.6753 241° Southwest 391 450 25,800 -2,100 Descending Albuquerque Center
08:47PM 34.2583 -110.8056 239° Southwest 381 438 23,500 -2,100 Descending Albuquerque Center
08:48PM 34.2094 -110.9128 241° Southwest 369 425 21,600 -1,860 Descending Albuquerque Center
08:49PM 34.1600 -111.0219 241° Southwest 371 427 19,700 -2,040 Descending Albuquerque Center
08:50PM 34.1014 -111.1228 235° Southwest 368 423 17,500 -2,460 Descending Albuquerque Center
08:51PM 34.0289 -111.2153 227° Southwest 376 433 14,700 -1,920 Descending Albuquerque Center
08:52PM 33.9575 -111.3083 227° Southwest 378 435 13,600 -1,260 Descending Albuquerque Center
08:53PM 33.8872 -111.3967 226° Southwest 362 417 12,200 -1,320 Descending Albuquerque Center
08:54PM 33.8147 -111.4631 217° Southwest 329 379 11,000 -1,320 Descending Albuquerque Center
08:55PM 33.7453 -111.5219 215° Southwest 307 353 9,600 -1,140 Descending Albuquerque Center
08:56PM 33.6672 -111.5886 215° Southwest 285 328 8,700 -900 Descending Albuquerque Center
08:57PM 33.6117 -111.6364 216° Southwest 248 285 7,800 -1,020 Descending Albuquerque Center
08:58PM 33.5561 -111.6825 215° Southwest 242 278 6,700 -1,080 Descending Albuquerque Center
08:59PM 33.5006 -111.7281 214° Southwest 241 277 5,600 -1,080 Descending Albuquerque Center
09:00PM 33.4553 -111.7844 226° Southwest 237 273 4,500 -1,080 Descending Albuquerque Center
09:01PM 33.4422 -111.8503 257° West 206 237 3,500 -1,080 Descending Albuquerque Center
09:02PM 33.4414 -111.9131 269° West 190 219 2,400 -960 Descending Albuquerque Center
09:03PM 33.4417 -111.9614 270° West 152 175 1,600 -660 Descending Albuquerque Center
09:04PM 33.4367 -111.9931 259° West 126 145 1,100 -540 Descending Albuquerque Center
09:06PM 33.4343 -112.0116 270° West  Level Estimated